createdAt,value
2019-06-15T00:02:18.191Z,93.75
2019-06-15T00:07:14.039Z,93.20
2019-06-15T00:12:09.890Z,95.89
2019-06-15T00:17:05.785Z,96.11
2019-06-15T00:22:03.985Z,97.22
2019-06-15T00:26:59.841Z,95.82
2019-06-15T00:31:55.705Z,97.32
2019-06-15T00:36:51.554Z,96.51
2019-06-15T00:41:47.379Z,94.69
2019-06-15T00:46:43.214Z,96.06
2019-06-15T00:51:39.061Z,96.46
2019-06-15T00:56:35.707Z,92.78
2019-06-15T01:01:31.693Z,94.04
2019-06-15T01:06:28.012Z,93.43
2019-06-15T01:11:23.745Z,94.38
2019-06-15T01:16:19.515Z,91.75
2019-06-15T01:26:17.950Z,91.06
2019-06-15T01:31:13.692Z,88.38
2019-06-15T01:36:09.513Z,89.86
2019-06-15T01:41:05.304Z,91.96
2019-06-15T01:46:01.100Z,92.74
2019-06-15T01:50:56.883Z,94.28
2019-06-15T01:55:54.056Z,94.76
2019-06-15T02:00:49.925Z,95.76
2019-06-15T02:05:45.752Z,95.43
2019-06-15T02:10:41.489Z,95.44
2019-06-15T02:15:37.364Z,96.11
2019-06-15T02:20:33.153Z,93.54
2019-06-15T02:25:36.284Z,95.46
2019-06-15T02:30:30.964Z,94.92
2019-06-15T02:35:27.050Z,92.98
2019-06-15T02:40:22.809Z,94.72
2019-06-15T02:45:19.468Z,95.61
2019-06-15T02:50:15.537Z,94.55
2019-06-15T02:55:11.731Z,95.46
2019-06-15T03:00:08.770Z,96.19
2019-06-15T03:05:04.723Z,96.03
2019-06-15T03:10:01.020Z,88.05
2019-06-15T03:14:57.619Z,84.78
2019-06-15T03:19:53.423Z,86.71
2019-06-15T03:24:49.216Z,86.49
2019-06-15T03:29:45.037Z,86.20
2019-06-15T03:34:40.806Z,86.69
2019-06-15T03:39:36.543Z,86.57
2019-06-15T03:44:32.572Z,85.38
2019-06-15T03:49:29.151Z,85.60
2019-06-15T03:54:25.106Z,86.59
2019-06-15T03:59:21.024Z,86.35
2019-06-15T04:04:16.857Z,87.92
2019-06-15T04:09:12.873Z,88.23
2019-06-15T04:14:09.019Z,89.73
2019-06-15T04:19:05.028Z,88.46
2019-06-15T04:24:00.938Z,85.40
2019-06-15T04:28:56.738Z,87.11
2019-06-15T04:33:52.794Z,85.71
2019-06-15T04:40:02.573Z,83.79
2019-06-15T04:45:10.164Z,85.29
2019-06-15T04:50:15.356Z,83.81
2019-06-15T04:55:55.262Z,84.10
2019-06-15T05:01:21.317Z,85.04
2019-06-15T05:07:51.317Z,84.63
2019-06-15T05:12:47.366Z,85.38
2019-06-15T05:17:46.189Z,84.54
2019-06-15T05:23:39.282Z,83.04
2019-06-15T05:28:33.200Z,81.07
2019-06-15T05:33:29.673Z,77.90
2019-06-15T05:38:25.930Z,77.01
2019-06-15T05:43:22.050Z,80.43
2019-06-15T05:48:18.031Z,82.80
2019-06-15T05:53:13.925Z,83.17
2019-06-15T05:58:10.869Z,84.51
2019-06-15T06:03:06.905Z,80.09
2019-06-15T06:08:05.645Z,84.26
2019-06-15T06:13:01.756Z,84.81
2019-06-15T06:17:57.982Z,87.72
2019-06-15T06:22:53.959Z,81.83
2019-06-15T06:27:49.943Z,83.80
2019-06-15T06:32:45.953Z,80.32
2019-06-15T06:37:41.998Z,83.48
2019-06-15T06:42:38.063Z,82.71
2019-06-15T06:47:33.974Z,82.07
2019-06-15T06:52:32.005Z,81.33
2019-06-15T06:57:28.014Z,77.81
2019-06-15T07:02:26.112Z,76.81
2019-06-15T07:07:22.697Z,75.90
2019-06-15T07:12:18.978Z,75.15
2019-06-15T07:17:16.247Z,76.60
2019-06-15T07:22:12.320Z,71.60
2019-06-15T07:27:08.414Z,74.52
2019-06-15T07:32:04.750Z,73.10
2019-06-15T07:37:03.637Z,72.82
2019-06-15T07:41:59.565Z,72.39
2019-06-15T07:46:58.375Z,67.94
2019-06-15T07:51:54.248Z,68.30
2019-06-15T07:56:50.306Z,68.89
2019-06-15T08:01:46.404Z,69.54
2019-06-15T08:06:42.407Z,69.84
2019-06-15T08:11:39.745Z,69.38
2019-06-15T08:16:35.770Z,70.83
2019-06-15T08:21:31.924Z,68.99
2019-06-15T08:26:28.010Z,68.93
2019-06-15T08:31:24.075Z,64.24
2019-06-15T08:36:22.232Z,65.26
2019-06-15T08:41:18.276Z,68.43
2019-06-15T08:46:14.287Z,68.64
2019-06-15T08:51:10.382Z,72.27
2019-06-15T08:56:06.992Z,70.07
2019-06-15T09:01:03.045Z,71.25
2019-06-15T09:05:59.245Z,69.67
2019-06-15T09:10:55.658Z,67.58
2019-06-15T09:15:54.671Z,67.81
2019-06-15T09:20:51.498Z,69.78
2019-06-15T09:25:47.975Z,64.61
2019-06-15T09:30:44.258Z,65.29
2019-06-15T09:35:40.359Z,61.37
2019-06-15T09:40:36.387Z,64.75
2019-06-15T09:46:06.212Z,65.92
2019-06-15T10:09:00.718Z,66.64
2019-06-15T10:14:05.680Z,64.63
2019-06-15T10:19:04.589Z,63.43
2019-06-15T10:40:55.624Z,61.03
2019-06-15T10:50:56.723Z,58.10
2019-06-15T10:55:54.686Z,59.36
2019-06-15T11:00:51.016Z,61.15
2019-06-15T11:05:47.007Z,61.21
2019-06-15T11:11:08.369Z,63.40
2019-06-15T11:16:07.218Z,61.16
2019-06-15T11:21:03.981Z,61.32
2019-06-15T11:38:04.761Z,61.03
2019-06-15T11:42:39.565Z,61.51
2019-06-15T11:47:35.495Z,58.34
2019-06-15T11:52:31.407Z,63.80
2019-06-15T11:57:27.298Z,59.78
2019-06-15T12:02:23.134Z,60.48
2019-06-15T12:07:19.139Z,57.26
2019-06-15T12:12:15.132Z,59.95
2019-06-15T12:17:11.045Z,57.79
2019-06-15T12:22:06.937Z,54.47
2019-06-15T12:27:02.696Z,54.23
2019-06-15T12:31:58.754Z,52.98
2019-06-15T12:36:54.665Z,54.45
2019-06-15T12:41:50.555Z,54.28
2019-06-15T12:46:46.468Z,53.88
2019-06-15T12:51:42.255Z,54.75
2019-06-15T12:56:38.022Z,56.24
2019-06-15T13:01:33.950Z,56.22
2019-06-15T13:06:29.911Z,55.61
2019-06-15T13:11:26.481Z,53.07
2019-06-15T13:16:22.579Z,57.29
2019-06-15T13:44:45.066Z,59.50
2019-06-15T13:49:46.364Z,54.38
2019-06-15T13:54:43.051Z,56.48
2019-06-15T13:59:38.858Z,58.51
2019-06-15T14:04:37.277Z,55.79
2019-06-15T14:09:33.005Z,54.12
2019-06-15T14:14:28.918Z,52.18
2019-06-15T14:19:24.731Z,54.41
2019-06-15T14:24:20.512Z,58.09
2019-06-15T14:29:17.526Z,52.51
2019-06-15T14:34:13.649Z,52.69
2019-06-15T14:39:09.747Z,54.40
2019-06-15T14:44:05.812Z,53.04
2019-06-15T14:49:01.569Z,53.15
2019-06-15T14:53:59.040Z,54.86
2019-06-15T14:58:56.327Z,57.63
2019-06-15T15:03:52.250Z,53.86
2019-06-15T15:08:48.226Z,54.84
2019-06-15T15:13:46.959Z,57.27
2019-06-15T15:18:41.758Z,53.15
2019-06-15T15:23:37.703Z,54.95
2019-06-15T15:28:33.565Z,55.51
2019-06-15T15:33:29.386Z,53.23
2019-06-15T15:38:25.182Z,54.85
2019-06-15T15:43:20.994Z,55.50
2019-06-15T15:48:21.074Z,53.13
2019-06-15T15:53:18.908Z,54.30
2019-06-15T15:58:17.900Z,54.81
2019-06-15T16:03:15.972Z,55.59
2019-06-15T16:08:12.251Z,55.95
2019-06-15T16:13:08.159Z,55.15
2019-06-15T16:18:06.826Z,57.59
2019-06-15T16:23:03.282Z,56.13
2019-06-15T16:27:59.330Z,60.86
2019-06-15T16:33:01.292Z,59.66
2019-06-15T16:37:53.136Z,60.87
2019-06-15T16:42:49.517Z,58.94
2019-06-15T16:47:46.733Z,58.50
2019-06-15T16:52:43.122Z,55.67
2019-06-15T16:57:38.985Z,55.04
2019-06-15T17:02:36.843Z,54.95
2019-06-15T17:07:32.321Z,54.41
2019-06-15T17:12:28.083Z,57.20
2019-06-15T17:17:26.432Z,57.54
2019-06-15T17:22:21.641Z,58.42
2019-06-15T17:27:17.662Z,60.93
2019-06-15T17:32:13.610Z,57.07
2019-06-15T17:37:09.479Z,57.54
2019-06-15T17:42:07.053Z,57.92
2019-06-15T17:47:03.150Z,58.59
2019-06-15T17:51:59.000Z,59.96
2019-06-15T17:56:56.816Z,63.68
2019-06-15T18:01:52.508Z,64.40
2019-06-15T18:06:48.491Z,59.55
2019-06-15T18:11:46.510Z,65.96
2019-06-15T18:16:42.326Z,63.96
2019-06-15T18:21:41.056Z,65.84
2019-06-15T18:26:36.494Z,61.73
2019-06-15T18:31:36.412Z,61.35
2019-06-15T18:36:32.830Z,61.29
2019-06-15T18:41:29.064Z,64.37
2019-06-15T18:46:28.183Z,62.06
2019-06-15T18:51:24.271Z,64.14
